Time;durP1;ratioP1;P1;durP2;ratioP2;P2;SDS_P1;SDS_P2;PMS_P1;PMS_P2;Temp;Humidity;BMP_temperature;BMP_pressure;BME280_temperature;BME280_humidity;BME280_pressure;Samples;Min_cycle;Max_cycle;Signal;HPM_P1;HPM_P2
2022/07/28 00:00:44;;;;;;;4.00;2.25;;;26.20;54.20;;;;;;6158866;28;80793;-72
2022/07/28 00:03:45;;;;;;;2.15;1.48;;;26.10;53.80;;;;;;6158585;28;81459;-72
2022/07/28 00:06:46;;;;;;;7.95;2.53;;;26.10;53.80;;;;;;6157862;28;80749;-70
2022/07/28 00:09:46;;;;;;;2.83;1.83;;;26.10;53.70;;;;;;6158447;28;81949;-69
2022/07/28 00:12:47;;;;;;;4.93;2.08;;;26.10;53.70;;;;;;6148934;28;80701;-71
2022/07/28 00:15:47;;;;;;;4.25;2.08;;;26.10;53.80;;;;;;6157206;28;80264;-71
2022/07/28 00:18:48;;;;;;;3.67;1.70;;;26.10;53.30;;;;;;6158850;28;80395;-71
2022/07/28 00:21:48;;;;;;;2.97;1.80;;;26.10;53.40;;;;;;6148987;28;80352;-73
2022/07/28 00:24:49;;;;;;;2.80;1.70;;;26.10;53.40;;;;;;6156791;28;80720;-72
2022/07/28 00:27:49;;;;;;;4.45;1.92;;;26.10;53.20;;;;;;6162471;28;80444;-71
2022/07/28 00:30:50;;;;;;;3.30;1.77;;;26.10;53.30;;;;;;6161186;28;82122;-72
2022/07/28 00:33:50;;;;;;;3.30;2.08;;;26.10;53.00;;;;;;6145911;28;83096;-72
2022/07/28 00:36:51;;;;;;;2.92;1.80;;;26.10;52.90;;;;;;6151955;28;80363;-71
2022/07/28 00:39:51;;;;;;;2.38;1.77;;;26.10;52.80;;;;;;6151769;28;80809;-71
2022/07/28 00:42:52;;;;;;;6.38;1.88;;;26.10;53.10;;;;;;6162784;28;80354;-71
2022/07/28 00:45:52;;;;;;;2.67;1.83;;;26.10;53.20;;;;;;6159103;28;81792;-71
2022/07/28 00:48:53;;;;;;;2.35;1.60;;;26.10;52.90;;;;;;6160080;28;82234;-71
2022/07/28 00:51:53;;;;;;;7.05;1.77;;;26.10;53.10;;;;;;6162006;28;80666;-71
2022/07/28 00:54:54;;;;;;;3.58;1.52;;;26.10;53.00;;;;;;6161881;28;80301;-71
2022/07/28 00:57:54;;;;;;;3.47;1.67;;;26.10;53.00;;;;;;6161642;28;81200;-71
2022/07/28 01:00:55;;;;;;;2.03;1.58;;;26.10;53.00;;;;;;6150659;28;80666;-70
2022/07/28 01:03:55;;;;;;;5.43;1.70;;;26.10;52.80;;;;;;6161243;28;80640;-70
2022/07/28 01:06:56;;;;;;;7.97;2.10;;;26.00;52.80;;;;;;6152926;28;80409;-70
2022/07/28 01:09:56;;;;;;;2.58;1.45;;;26.00;52.80;;;;;;6154635;28;80458;-70
2022/07/28 01:12:57;;;;;;;2.45;1.50;;;26.00;52.60;;;;;;6161736;28;80537;-70
2022/07/28 01:15:57;;;;;;;2.15;1.10;;;26.00;52.50;;;;;;6152139;28;80888;-71
2022/07/28 01:18:58;;;;;;;7.47;1.50;;;26.00;52.40;;;;;;6160519;28;80380;-72
2022/07/28 01:21:58;;;;;;;1.98;1.42;;;26.00;52.50;;;;;;6151168;28;80438;-71
2022/07/28 01:24:59;;;;;;;2.55;1.52;;;26.00;53.30;;;;;;6158382;28;82925;-71
2022/07/28 01:27:59;;;;;;;3.58;1.58;;;26.00;52.40;;;;;;6150205;28;80988;-71
2022/07/28 01:31:00;;;;;;;2.63;1.42;;;26.00;52.40;;;;;;6145847;28;80481;-71
2022/07/28 01:34:00;;;;;;;2.58;1.45;;;26.00;52.10;;;;;;6152138;28;80902;-71
2022/07/28 01:37:01;;;;;;;1.50;1.25;;;26.00;52.00;;;;;;6138438;28;80537;-70
2022/07/28 01:40:01;;;;;;;3.35;1.40;;;26.00;51.90;;;;;;6143346;28;80569;-70
2022/07/28 01:43:02;;;;;;;2.30;1.42;;;26.00;51.90;;;;;;6161005;28;80747;-70
2022/07/28 01:46:02;;;;;;;3.25;1.90;;;26.00;51.80;;;;;;6153993;28;80586;-69
2022/07/28 01:49:03;;;;;;;5.95;1.48;;;25.90;51.80;;;;;;6158184;28;80792;-69
2022/07/28 01:52:03;;;;;;;1.35;1.25;;;25.90;52.20;;;;;;6156370;28;80917;-71
2022/07/28 01:55:03;;;;;;;4.78;2.22;;;25.90;52.00;;;;;;6141225;28;81379;-69
2022/07/28 01:58:04;;;;;;;3.42;1.40;;;25.90;52.10;;;;;;6152803;28;81697;-69
2022/07/28 02:01:04;;;;;;;2.00;1.48;;;25.90;52.00;;;;;;6147106;28;80543;-69
2022/07/28 02:04:05;;;;;;;2.13;1.65;;;25.90;52.00;;;;;;6155493;28;80588;-70
2022/07/28 02:07:05;;;;;;;2.72;1.33;;;25.90;52.00;;;;;;6155282;28;80835;-69
2022/07/28 02:10:06;;;;;;;3.58;2.15;;;25.90;52.00;;;;;;6151454;28;81380;-69
2022/07/28 02:13:06;;;;;;;2.50;1.80;;;25.90;52.20;;;;;;6143037;28;80170;-70
2022/07/28 02:16:07;;;;;;;3.60;1.38;;;25.90;52.20;;;;;;6155198;28;81658;-69
2022/07/28 02:19:07;;;;;;;2.78;1.38;;;25.90;52.10;;;;;;6159677;28;80370;-69
2022/07/28 02:22:08;;;;;;;4.32;1.30;;;25.90;52.30;;;;;;6147893;28;80536;-70
2022/07/28 02:25:08;;;;;;;3.33;1.58;;;25.90;52.30;;;;;;6156116;28;80259;-71
2022/07/28 02:28:09;;;;;;;3.13;1.55;;;26.00;52.50;;;;;;6137259;28;82214;-70
2022/07/28 02:31:09;;;;;;;6.13;1.73;;;25.90;52.40;;;;;;6152393;28;80774;-72
2022/07/28 02:34:10;;;;;;;2.60;1.63;;;25.90;52.50;;;;;;6159365;28;80546;-71
2022/07/28 02:37:10;;;;;;;5.00;1.60;;;25.90;52.50;;;;;;6146829;28;81893;-71
2022/07/28 02:40:11;;;;;;;1.55;1.20;;;25.90;52.60;;;;;;6154326;28;80629;-71
2022/07/28 02:43:11;;;;;;;3.53;1.52;;;25.90;52.60;;;;;;6160806;28;80535;-72
2022/07/28 02:46:12;;;;;;;1.50;1.20;;;25.90;52.60;;;;;;6152110;28;81057;-71
2022/07/28 02:49:13;;;;;;;3.47;1.40;;;25.90;52.60;;;;;;6158898;28;80718;-69
2022/07/28 02:52:13;;;;;;;2.53;1.33;;;26.00;52.70;;;;;;6160133;28;81464;-71
2022/07/28 02:55:14;;;;;;;1.92;1.30;;;26.00;52.70;;;;;;6160254;28;80261;-72
2022/07/28 02:58:14;;;;;;;2.50;1.30;;;25.90;52.80;;;;;;6157988;28;81211;-71
2022/07/28 03:01:15;;;;;;;2.83;1.42;;;25.90;52.90;;;;;;6159749;28;80523;-72
2022/07/28 03:04:15;;;;;;;2.13;1.40;;;25.90;52.90;;;;;;6155947;28;80356;-70
2022/07/28 03:07:16;;;;;;;3.38;1.50;;;25.90;53.00;;;;;;6158887;28;80170;-72
2022/07/28 03:10:16;;;;;;;3.28;1.40;;;25.90;53.80;;;;;;6159430;28;80247;-73
2022/07/28 03:13:17;;;;;;;3.03;1.65;;;25.90;53.30;;;;;;6154235;28;81808;-70
2022/07/28 03:16:17;;;;;;;1.98;1.30;;;25.90;53.20;;;;;;6154809;28;80583;-72
2022/07/28 03:19:17;;;;;;;2.65;1.42;;;25.90;53.10;;;;;;6151513;28;80489;-72
2022/07/28 03:22:18;;;;;;;4.55;1.45;;;25.90;53.10;;;;;;6157763;28;80700;-72
2022/07/28 03:25:19;;;;;;;2.55;1.63;;;25.90;52.80;;;;;;6151055;28;80408;-71
2022/07/28 03:28:19;;;;;;;4.38;1.67;;;25.90;52.60;;;;;;6158025;28;81564;-70
2022/07/28 03:31:20;;;;;;;3.17;1.70;;;25.90;52.40;;;;;;6146762;28;80255;-73
2022/07/28 03:34:20;;;;;;;4.22;1.40;;;25.90;52.30;;;;;;6154240;28;80467;-72
2022/07/28 03:37:21;;;;;;;2.80;1.83;;;25.80;52.40;;;;;;6151686;28;80570;-72
2022/07/28 03:40:21;;;;;;;2.53;1.60;;;25.80;52.60;;;;;;6149511;28;80179;-71
2022/07/28 03:43:22;;;;;;;2.80;1.77;;;25.80;52.40;;;;;;6147998;28;81586;-71
2022/07/28 03:46:23;;;;;;;3.45;1.80;;;25.80;52.50;;;;;;6133979;28;81273;-71
2022/07/28 03:49:23;;;;;;;2.88;1.67;;;25.80;52.40;;;;;;6142094;28;80320;-70
2022/07/28 03:52:24;;;;;;;4.20;2.40;;;25.80;52.30;;;;;;6148765;28;81398;-72
2022/07/28 03:55:24;;;;;;;3.80;2.10;;;25.80;52.50;;;;;;6144362;28;81113;-69
2022/07/28 03:58:25;;;;;;;10.45;2.22;;;25.80;52.40;;;;;;6159413;28;80660;-68
2022/07/28 04:01:25;;;;;;;1.67;1.52;;;25.90;52.50;;;;;;6151355;28;80628;-69
2022/07/28 04:04:26;;;;;;;3.13;1.58;;;25.80;52.30;;;;;;6151614;28;80357;-70
2022/07/28 04:07:26;;;;;;;7.18;1.88;;;25.80;52.70;;;;;;6149763;28;80824;-70
2022/07/28 04:10:27;;;;;;;5.15;2.40;;;25.80;52.80;;;;;;6149295;28;81555;-69
2022/07/28 04:13:27;;;;;;;5.45;2.25;;;25.80;52.90;;;;;;6151979;28;80588;-69
2022/07/28 04:16:28;;;;;;;6.18;1.85;;;25.80;52.80;;;;;;6165534;28;80810;-67
2022/07/28 04:19:28;;;;;;;5.68;2.13;;;25.80;52.90;;;;;;6159878;28;80362;-69
2022/07/28 04:22:29;;;;;;;2.15;1.83;;;25.80;52.90;;;;;;6151395;28;80050;-64
2022/07/28 04:25:29;;;;;;;9.10;2.50;;;25.90;53.00;;;;;;6158198;28;80842;-66
2022/07/28 04:28:30;;;;;;;5.20;1.55;;;25.90;53.20;;;;;;6154762;28;80579;-67
2022/07/28 04:31:30;;;;;;;5.55;1.95;;;25.90;53.20;;;;;;6141971;28;80462;-66
2022/07/28 04:34:31;;;;;;;3.05;1.70;;;25.90;53.20;;;;;;6146929;28;80331;-66
2022/07/28 04:37:31;;;;;;;4.75;1.92;;;25.90;53.20;;;;;;6143046;28;80503;-67
2022/07/28 04:40:33;;;;;;;4.00;2.10;;;25.90;53.30;;;;;;6156583;28;80620;-66
2022/07/28 04:43:33;;;;;;;4.88;2.17;;;25.90;53.20;;;;;;6140338;28;81108;-68
2022/07/28 04:46:34;;;;;;;2.15;1.48;;;25.90;53.10;;;;;;6142982;28;81359;-67
2022/07/28 04:49:35;;;;;;;4.70;1.98;;;25.90;53.00;;;;;;6151685;28;80678;-72
2022/07/28 04:52:35;;;;;;;3.10;2.05;;;25.90;53.40;;;;;;6141321;28;80376;-67
2022/07/28 04:55:37;;;;;;;7.38;2.15;;;25.90;52.80;;;;;;6152816;28;80457;-67
2022/07/28 04:58:38;;;;;;;4.88;2.00;;;25.90;52.30;;;;;;6153686;28;80884;-72
2022/07/28 05:01:39;;;;;;;3.53;2.13;;;25.90;52.30;;;;;;6139487;28;80349;-75
2022/07/28 05:04:40;;;;;;;6.70;2.38;;;25.90;52.60;;;;;;6129552;28;80694;-70
2022/07/28 05:07:40;;;;;;;5.22;2.30;;;25.90;52.70;;;;;;6137083;28;80460;-73
2022/07/28 05:10:41;;;;;;;9.10;2.08;;;25.90;52.50;;;;;;6138089;28;80215;-77
2022/07/28 05:13:41;;;;;;;7.03;2.10;;;25.90;52.40;;;;;;6159796;28;80340;-77
2022/07/28 05:16:42;;;;;;;8.38;2.80;;;25.90;52.30;;;;;;6164269;28;80581;-72
2022/07/28 05:19:42;;;;;;;4.97;2.15;;;25.90;52.40;;;;;;6148324;28;80953;-77
2022/07/28 05:22:43;;;;;;;7.95;2.22;;;26.00;52.50;;;;;;6151354;28;81054;-77
2022/07/28 05:25:43;;;;;;;14.52;3.05;;;25.90;52.50;;;;;;6136517;28;80358;-76
2022/07/28 05:28:44;;;;;;;8.30;2.75;;;26.00;52.70;;;;;;6143448;28;80980;-65
2022/07/28 05:31:44;;;;;;;7.18;2.28;;;25.90;52.40;;;;;;6155757;28;81724;-65
2022/07/28 05:34:45;;;;;;;11.48;3.40;;;25.90;52.00;;;;;;6141372;28;80605;-65
2022/07/28 05:37:45;;;;;;;13.77;3.38;;;25.90;52.50;;;;;;6160298;28;80443;-66
2022/07/28 05:40:46;;;;;;;9.90;3.28;;;25.90;52.80;;;;;;6153739;28;80949;-65
2022/07/28 05:43:46;;;;;;;7.60;3.15;;;25.90;53.10;;;;;;6160049;28;80429;-65
2022/07/28 05:46:47;;;;;;;7.55;3.25;;;25.80;53.40;;;;;;6151875;28;81335;-66
2022/07/28 05:49:47;;;;;;;6.88;3.08;;;25.70;54.20;;;;;;6160522;28;81332;-78
2022/07/28 05:52:48;;;;;;;9.95;3.10;;;25.70;54.20;;;;;;6157641;28;81582;-65
2022/07/28 05:55:49;;;;;;;7.00;2.40;;;25.70;53.80;;;;;;6155169;28;80384;-66
2022/07/28 05:58:49;;;;;;;15.02;3.97;;;25.70;53.90;;;;;;6157805;28;80448;-77
2022/07/28 06:01:50;;;;;;;11.95;3.10;;;25.70;54.20;;;;;;6151261;28;80474;-66
2022/07/28 06:04:50;;;;;;;9.43;3.08;;;25.70;54.40;;;;;;6149445;28;80362;-65
2022/07/28 06:07:51;;;;;;;7.55;3.92;;;25.70;54.60;;;;;;6151138;28;82162;-66
2022/07/28 06:10:57;;;;;;;6.30;2.65;;;25.60;53.70;;;;;;6144210;28;80507;-66
2022/07/28 06:13:58;;;;;;;9.90;3.20;;;25.60;52.90;;;;;;6147385;28;82122;-66
2022/07/28 06:16:58;;;;;;;5.82;2.90;;;25.70;52.30;;;;;;6145414;28;81010;-73
2022/07/28 06:19:59;;;;;;;5.88;3.22;;;25.70;52.60;;;;;;6148630;28;80245;-66
2022/07/28 06:22:59;;;;;;;5.82;2.85;;;25.80;53.00;;;;;;6160651;28;80431;-67
2022/07/28 06:26:00;;;;;;;9.02;2.78;;;25.80;52.30;;;;;;6145320;28;81727;-65
2022/07/28 06:29:00;;;;;;;6.28;2.83;;;25.80;52.70;;;;;;6146527;28;80513;-69
2022/07/28 06:32:01;;;;;;;9.55;3.28;;;25.70;51.70;;;;;;6147681;28;80321;-67
2022/07/28 06:35:01;;;;;;;8.98;3.17;;;25.70;51.50;;;;;;6146969;28;80522;-67
2022/07/28 06:38:02;;;;;;;6.30;2.85;;;25.70;52.30;;;;;;6156537;28;80775;-66
2022/07/28 06:41:02;;;;;;;6.78;2.97;;;25.60;52.40;;;;;;6157654;28;80416;-66
2022/07/28 06:44:03;;;;;;;4.28;2.97;;;25.70;51.80;;;;;;6148428;28;80525;-67
2022/07/28 06:47:03;;;;;;;5.50;3.22;;;25.70;51.70;;;;;;6155697;28;81535;-67
2022/07/28 06:50:04;;;;;;;14.07;3.47;;;25.80;51.40;;;;;;6152162;28;80453;-66
2022/07/28 06:53:04;;;;;;;6.95;3.63;;;25.70;51.60;;;;;;6158534;28;80473;-66
2022/07/28 06:56:05;;;;;;;6.25;3.47;;;25.80;51.70;;;;;;6148726;28;80418;-66
2022/07/28 06:59:05;;;;;;;8.20;3.58;;;25.80;52.00;;;;;;6154990;28;80826;-65
2022/07/28 07:02:06;;;;;;;7.30;3.00;;;25.80;51.50;;;;;;6157510;28;80310;-65
2022/07/28 07:05:06;;;;;;;12.80;3.78;;;25.80;51.70;;;;;;6150408;28;80362;-65
2022/07/28 07:08:07;;;;;;;9.32;2.88;;;25.90;51.80;;;;;;6146159;28;80835;-65
2022/07/28 07:11:07;;;;;;;10.75;2.80;;;25.90;52.00;;;;;;6148782;28;81412;-65
2022/07/28 07:14:08;;;;;;;4.85;2.83;;;25.90;52.20;;;;;;6158187;28;81037;-65
2022/07/28 07:17:08;;;;;;;8.90;3.03;;;25.90;52.10;;;;;;6147302;28;81424;-65
2022/07/28 07:20:09;;;;;;;10.00;3.10;;;25.90;52.10;;;;;;6158864;28;80357;-66
2022/07/28 07:23:09;;;;;;;8.88;3.00;;;25.80;51.60;;;;;;6155178;28;80721;-66
2022/07/28 07:26:10;;;;;;;9.23;3.97;;;25.80;51.50;;;;;;6151639;28;80448;-66
2022/07/28 07:29:10;;;;;;;6.75;2.92;;;25.60;51.60;;;;;;6160081;28;80635;-66
2022/07/28 07:32:11;;;;;;;5.03;2.60;;;25.60;52.00;;;;;;6162234;28;81800;-65
2022/07/28 07:35:11;;;;;;;9.52;3.13;;;25.70;51.60;;;;;;6148770;28;81022;-75
2022/07/28 07:38:12;;;;;;;8.35;2.92;;;25.70;51.50;;;;;;6140952;28;81376;-66
2022/07/28 07:41:13;;;;;;;11.02;3.45;;;25.80;51.70;;;;;;6160214;28;82329;-64
2022/07/28 07:44:13;;;;;;;14.45;3.33;;;25.80;51.50;;;;;;6153134;28;80544;-65
2022/07/28 07:47:14;;;;;;;7.00;3.35;;;25.70;51.90;;;;;;6148923;28;80255;-66
2022/07/28 07:50:14;;;;;;;9.95;3.38;;;25.70;52.20;;;;;;6160289;28;80877;-66
2022/07/28 07:53:15;;;;;;;7.72;3.53;;;25.80;51.70;;;;;;6151359;28;80460;-65
2022/07/28 07:56:17;;;;;;;8.75;3.42;;;25.90;51.60;;;;;;6162583;28;80605;-67
2022/07/28 07:59:17;;;;;;;11.05;3.97;;;25.80;51.50;;;;;;6160037;28;80351;-66
2022/07/28 08:02:18;;;;;;;5.70;2.75;;;25.80;51.20;;;;;;6159082;28;80888;-65
2022/07/28 08:05:18;;;;;;;6.13;2.65;;;25.80;51.10;;;;;;6150997;28;80679;-64
2022/07/28 08:08:19;;;;;;;8.55;2.55;;;25.80;51.50;;;;;;6141962;28;80195;-64
2022/07/28 08:11:19;;;;;;;6.75;2.63;;;25.70;51.90;;;;;;6141624;28;80347;-66
2022/07/28 08:14:20;;;;;;;7.50;2.47;;;25.70;52.50;;;;;;6147037;28;80296;-72
2022/07/28 08:17:20;;;;;;;6.55;2.55;;;25.70;52.20;;;;;;6162349;28;80368;-74
2022/07/28 08:20:20;;;;;;;6.05;2.65;;;25.80;51.80;;;;;;6159008;28;81388;-78
2022/07/28 08:23:21;;;;;;;3.05;1.90;;;25.90;51.70;;;;;;6158484;28;81989;-77
2022/07/28 08:26:22;;;;;;;8.82;2.28;;;25.90;51.30;;;;;;6152886;28;82790;-71
2022/07/28 08:29:22;;;;;;;5.90;2.50;;;25.90;51.40;;;;;;6152503;28;80511;-67
2022/07/28 08:32:23;;;;;;;7.38;2.28;;;25.80;51.20;;;;;;6149767;28;81070;-67
2022/07/28 08:35:23;;;;;;;12.23;2.03;;;25.80;51.10;;;;;;6140310;28;81501;-65
2022/07/28 08:38:24;;;;;;;16.05;2.20;;;25.80;51.30;;;;;;6142753;28;86799;-70
2022/07/28 08:41:24;;;;;;;11.98;2.40;;;25.80;50.80;;;;;;6150755;28;80773;-65
2022/07/28 08:44:24;;;;;;;5.32;2.45;;;25.70;50.50;;;;;;6135448;28;81507;-61
2022/07/28 08:47:25;;;;;;;24.45;8.23;;;25.70;50.80;;;;;;6136623;28;80448;-66
2022/07/28 08:50:25;;;;;;;32.97;7.47;;;25.80;51.30;;;;;;6138022;28;80474;-68
2022/07/28 08:53:26;;;;;;;21.27;5.70;;;25.80;51.20;;;;;;6154053;28;80879;-75
2022/07/28 08:56:26;;;;;;;12.55;4.55;;;25.90;51.30;;;;;;6163413;28;80564;-80
2022/07/28 08:59:27;;;;;;;12.40;4.88;;;26.00;51.30;;;;;;6152391;28;80488;-79
2022/07/28 09:02:28;;;;;;;8.52;3.60;;;26.00;51.10;;;;;;6162718;28;80613;-71
2022/07/28 09:05:28;;;;;;;54.38;18.98;;;26.10;51.50;;;;;;6161040;28;80895;-70
2022/07/28 09:08:28;;;;;;;51.83;20.50;;;26.10;51.20;;;;;;6150712;28;83067;-71
2022/07/28 09:11:29;;;;;;;40.13;14.18;;;26.10;51.40;;;;;;6154862;28;83161;-69
2022/07/28 09:14:29;;;;;;;34.55;13.02;;;26.10;51.20;;;;;;6157913;28;85064;-72
2022/07/28 09:17:30;;;;;;;39.75;14.00;;;26.10;51.60;;;;;;6159391;28;84235;-72
2022/07/28 09:20:31;;;;;;;44.28;15.70;;;26.10;51.10;;;;;;6155042;28;83179;-76
2022/07/28 09:23:31;;;;;;;40.97;15.32;;;26.20;51.00;;;;;;6148781;28;82985;-69
2022/07/28 09:26:32;;;;;;;33.35;11.98;;;26.20;50.60;;;;;;6158804;28;83187;-69
2022/07/28 09:29:32;;;;;;;62.80;19.88;;;26.20;50.60;;;;;;6158836;28;84043;-73
2022/07/28 09:32:33;;;;;;;54.05;18.42;;;26.30;50.40;;;;;;6150090;28;82873;-70
2022/07/28 09:35:33;;;;;;;48.63;17.35;;;26.20;50.30;;;;;;6147537;28;83132;-75
2022/07/28 09:38:34;;;;;;;37.28;12.15;;;26.20;50.40;;;;;;6154941;28;82819;-73
2022/07/28 09:41:34;;;;;;;15.88;6.10;;;26.30;50.30;;;;;;6149001;28;83904;-76
2022/07/28 09:44:34;;;;;;;20.23;6.32;;;26.20;49.90;;;;;;6149597;28;82977;-76
2022/07/28 09:47:39;;;;;;;14.30;3.15;;;26.20;50.70;;;;;;6173984;28;80875;-77
2022/07/28 09:50:39;;;;;;;11.85;3.15;;;26.20;50.20;;;;;;6143675;28;80603;-64
2022/07/28 09:53:40;;;;;;;7.03;3.13;;;26.20;50.80;;;;;;6149507;28;81855;-64
2022/07/28 09:56:40;;;;;;;10.93;2.83;;;26.20;51.40;;;;;;6159708;28;81729;-64
2022/07/28 09:59:41;;;;;;;8.70;2.95;;;26.20;50.40;;;;;;6134801;28;80765;-63
2022/07/28 10:02:41;;;;;;;8.98;2.55;;;26.20;50.20;;;;;;6133853;28;80404;-64
2022/07/28 10:05:43;;;;;;;10.02;2.90;;;26.20;50.00;;;;;;6147119;28;80778;-64
2022/07/28 10:08:44;;;;;;;12.82;2.95;;;26.20;50.50;;;;;;6151654;28;80918;-67
2022/07/28 10:11:44;;;;;;;8.88;2.75;;;26.30;50.70;;;;;;6152578;28;80173;-67
2022/07/28 10:14:45;;;;;;;6.95;2.28;;;26.30;50.80;;;;;;6143879;28;81353;-74
2022/07/28 10:17:46;;;;;;;7.15;2.33;;;26.40;50.90;;;;;;6157373;28;81530;-76
2022/07/28 10:20:48;;;;;;;5.00;2.28;;;26.40;51.50;;;;;;6157523;28;80109;-65
2022/07/28 10:23:49;;;;;;;15.23;3.38;;;26.40;50.80;;;;;;6151275;28;80304;-64
2022/07/28 10:26:51;;;;;;;19.65;4.40;;;26.40;50.40;;;;;;6153073;28;82957;-64
2022/07/28 10:29:51;;;;;;;17.08;4.07;;;26.40;50.90;;;;;;6144394;28;80838;-64
2022/07/28 10:32:52;;;;;;;9.45;3.33;;;26.30;51.10;;;;;;6149195;28;80929;-63
2022/07/28 10:35:52;;;;;;;24.00;3.45;;;26.40;50.90;;;;;;6154078;28;80294;-66
2022/07/28 10:38:53;;;;;;;5.47;2.53;;;26.40;51.50;;;;;;6151369;28;80171;-66
2022/07/28 10:41:54;;;;;;;13.80;3.53;;;26.50;51.40;;;;;;6153287;28;80340;-65
2022/07/28 10:44:54;;;;;;;14.98;6.65;;;26.50;52.00;;;;;;6142570;28;80539;-66
2022/07/28 10:47:54;;;;;;;33.65;9.48;;;26.50;52.50;;;;;;6148383;28;80405;-68
2022/07/28 10:50:55;;;;;;;28.02;10.10;;;26.50;52.50;;;;;;6147238;28;81838;-65
2022/07/28 10:53:55;;;;;;;27.65;8.93;;;26.50;52.40;;;;;;6145106;28;83451;-65
2022/07/28 10:56:56;;;;;;;35.28;10.00;;;26.60;52.50;;;;;;6151513;28;83012;-68
2022/07/28 10:59:57;;;;;;;24.08;6.82;;;26.60;52.30;;;;;;6139848;28;83261;-66
2022/07/28 11:02:59;;;;;;;14.52;6.38;;;26.70;51.90;;;;;;6138601;28;83069;-64
2022/07/28 11:05:59;;;;;;;23.42;7.15;;;26.70;51.60;;;;;;6143142;28;80683;-64
2022/07/28 11:09:00;;;;;;;25.38;8.02;;;26.70;52.10;;;;;;6139459;28;80725;-64
2022/07/28 11:12:01;;;;;;;28.83;10.30;;;26.80;52.50;;;;;;6146950;28;81259;-65
2022/07/28 11:15:01;;;;;;;21.95;8.30;;;26.80;52.40;;;;;;6140927;28;83703;-64
2022/07/28 11:18:02;;;;;;;23.15;7.40;;;26.80;51.80;;;;;;6138120;28;82931;-64
2022/07/28 11:21:02;;;;;;;12.60;5.32;;;26.90;51.90;;;;;;6141810;28;80386;-64
2022/07/28 11:24:03;;;;;;;10.68;4.22;;;26.80;51.00;;;;;;6142817;28;81589;-64
2022/07/28 11:27:03;;;;;;;7.43;3.03;;;26.80;50.60;;;;;;6153861;28;81541;-65
2022/07/28 11:30:04;;;;;;;7.25;2.95;;;26.70;50.00;;;;;;6149083;28;80563;-65
2022/07/28 11:33:04;;;;;;;5.20;2.70;;;26.70;49.90;;;;;;6154156;28;80582;-66
2022/07/28 11:36:05;;;;;;;8.30;2.60;;;26.70;50.20;;;;;;6139743;28;80678;-62
2022/07/28 11:39:05;;;;;;;5.22;3.20;;;26.70;50.10;;;;;;6142961;28;80365;-66
2022/07/28 11:42:06;;;;;;;4.68;2.10;;;26.70;50.50;;;;;;6144005;28;80558;-68
2022/07/28 11:45:06;;;;;;;6.22;2.40;;;26.70;49.50;;;;;;6148158;28;82965;-67
2022/07/28 11:48:07;;;;;;;4.13;2.55;;;26.70;50.10;;;;;;6146957;28;81151;-67
2022/07/28 11:51:08;;;;;;;4.68;2.38;;;26.70;49.60;;;;;;6160607;28;80744;-75
2022/07/28 11:54:08;;;;;;;4.72;2.08;;;26.60;49.60;;;;;;6146828;28;80623;-65
2022/07/28 11:57:10;;;;;;;6.00;2.72;;;26.60;49.80;;;;;;6157765;28;80407;-66
2022/07/28 12:00:11;;;;;;;5.00;2.50;;;26.60;49.30;;;;;;6151089;28;81448;-66
2022/07/28 12:03:11;;;;;;;6.57;2.20;;;26.50;49.00;;;;;;6150843;28;80433;-66
2022/07/28 12:06:11;;;;;;;7.32;2.40;;;26.40;49.00;;;;;;6151327;28;80476;-67
2022/07/28 12:09:12;;;;;;;3.65;2.03;;;26.40;49.30;;;;;;6139302;28;80453;-67
2022/07/28 12:12:12;;;;;;;4.28;2.30;;;26.40;49.00;;;;;;6145854;28;80497;-66
2022/07/28 12:15:13;;;;;;;4.82;2.10;;;26.40;49.20;;;;;;6153018;28;80210;-66
2022/07/28 12:18:13;;;;;;;8.40;2.35;;;26.40;48.70;;;;;;6152214;28;80955;-67
2022/07/28 12:21:14;;;;;;;6.60;2.30;;;26.30;48.10;;;;;;6162115;28;80057;-66
2022/07/28 12:24:14;;;;;;;3.60;2.33;;;26.30;48.00;;;;;;6154568;28;81586;-66
2022/07/28 12:27:15;;;;;;;3.17;1.90;;;26.30;48.30;;;;;;6161859;28;80978;-66
2022/07/28 12:30:15;;;;;;;2.95;2.05;;;26.30;48.80;;;;;;6162924;28;80434;-66
2022/07/28 12:33:16;;;;;;;2.47;1.95;;;26.30;48.90;;;;;;6159564;28;80684;-66
2022/07/28 12:36:18;;;;;;;2.47;1.90;;;26.30;48.90;;;;;;6148684;28;80812;-67
2022/07/28 12:39:23;;;;;;;5.88;2.80;;;26.20;49.00;;;;;;6152487;28;81923;-67
2022/07/28 12:42:24;;;;;;;5.63;2.00;;;26.30;48.90;;;;;;6133333;28;85199;-67
2022/07/28 12:45:27;;;;;;;4.18;2.47;;;26.30;48.90;;;;;;6152767;28;80263;-67
2022/07/28 12:48:27;;;;;;;4.45;2.15;;;26.20;49.00;;;;;;6155708;28;80277;-67
2022/07/28 12:51:28;;;;;;;4.38;1.80;;;26.20;49.20;;;;;;6155821;28;80074;-67
2022/07/28 12:54:28;;;;;;;8.57;2.47;;;26.20;49.60;;;;;;6147972;28;80735;-67
2022/07/28 12:57:29;;;;;;;6.78;2.30;;;26.20;49.60;;;;;;6161725;28;80806;-67
2022/07/28 13:00:30;;;;;;;5.55;2.42;;;26.20;49.50;;;;;;6145529;28;80392;-67
2022/07/28 13:03:32;;;;;;;4.38;2.30;;;26.20;49.60;;;;;;6160928;28;80166;-67
2022/07/28 13:06:34;;;;;;;2.40;1.80;;;26.10;49.40;;;;;;6139780;28;82717;-67
2022/07/28 13:09:34;;;;;;;9.52;2.53;;;26.10;49.50;;;;;;6144372;28;80460;-67
2022/07/28 13:12:35;;;;;;;4.82;2.67;;;26.20;49.80;;;;;;6155596;28;80820;-67
2022/07/28 13:15:35;;;;;;;3.22;2.20;;;26.20;49.60;;;;;;6155502;28;80584;-67
2022/07/28 13:18:35;;;;;;;3.03;2.33;;;26.20;49.70;;;;;;6161701;28;80270;-67
2022/07/28 13:21:37;;;;;;;5.55;2.78;;;26.20;49.60;;;;;;6153412;28;81210;-67
2022/07/28 13:24:37;;;;;;;3.90;2.35;;;26.20;49.60;;;;;;6152389;28;80322;-67
2022/07/28 13:27:38;;;;;;;4.57;2.00;;;26.10;49.80;;;;;;6155915;28;80241;-67
2022/07/28 13:30:38;;;;;;;6.28;2.83;;;26.10;49.80;;;;;;6137698;28;82308;-67
2022/07/28 13:33:39;;;;;;;2.33;2.13;;;26.10;49.80;;;;;;6152022;28;80443;-72
2022/07/28 13:36:39;;;;;;;2.50;2.13;;;26.10;50.20;;;;;;6157846;28;81762;-65
2022/07/28 13:39:40;;;;;;;5.70;2.40;;;26.20;50.30;;;;;;6144413;28;80338;-66
2022/07/28 13:42:40;;;;;;;5.53;2.90;;;26.30;50.80;;;;;;6154026;28;83282;-65
2022/07/28 13:45:41;;;;;;;4.22;2.20;;;26.40;50.70;;;;;;6144285;28;81011;-64
2022/07/28 13:48:42;;;;;;;5.45;2.70;;;26.50;50.50;;;;;;6152091;28;81444;-64
2022/07/28 13:51:42;;;;;;;4.28;2.75;;;26.50;49.80;;;;;;6159943;28;81583;-64
2022/07/28 13:54:43;;;;;;;6.45;2.28;;;26.50;49.70;;;;;;6161185;28;80775;-64
2022/07/28 13:57:43;;;;;;;3.13;2.28;;;26.50;49.30;;;;;;6141601;28;82348;-65
2022/07/28 14:00:44;;;;;;;12.35;5.40;;;26.50;49.50;;;;;;6142536;28;81295;-65
2022/07/28 14:03:45;;;;;;;8.43;4.57;;;26.50;50.00;;;;;;6152836;28;80374;-64
2022/07/28 14:06:45;;;;;;;11.45;4.05;;;26.60;50.50;;;;;;6140731;28;80491;-65
2022/07/28 14:09:46;;;;;;;7.45;3.72;;;26.60;50.40;;;;;;6140291;28;81516;-66
2022/07/28 14:12:46;;;;;;;4.53;3.10;;;26.60;50.30;;;;;;6152037;28;80972;-66
2022/07/28 14:15:47;;;;;;;6.97;3.20;;;26.60;50.20;;;;;;6142559;28;80421;-65
2022/07/28 14:18:48;;;;;;;3.72;2.72;;;26.70;50.50;;;;;;6148608;28;80258;-64
2022/07/28 14:21:48;;;;;;;6.00;3.20;;;26.70;51.00;;;;;;6145389;28;81036;-66
2022/07/28 14:24:49;;;;;;;4.68;2.38;;;26.70;51.10;;;;;;6149977;28;80552;-66
2022/07/28 14:27:49;;;;;;;6.18;2.28;;;26.70;51.00;;;;;;6156131;28;80669;-66
2022/07/28 14:30:50;;;;;;;4.10;2.47;;;26.70;50.50;;;;;;6148564;28;80682;-65
2022/07/28 14:33:50;;;;;;;3.20;2.40;;;26.70;50.40;;;;;;6148445;28;81572;-66
2022/07/28 14:36:51;;;;;;;5.35;2.85;;;26.70;49.90;;;;;;6145471;28;80487;-66
2022/07/28 14:39:52;;;;;;;5.10;2.60;;;26.70;50.30;;;;;;6147652;28;81153;-65
2022/07/28 14:42:52;;;;;;;2.67;2.47;;;26.70;50.60;;;;;;6119951;28;80480;-65
2022/07/28 14:45:53;;;;;;;6.35;2.80;;;26.70;50.90;;;;;;6141022;28;81784;-65
2022/07/28 14:48:53;;;;;;;6.10;3.00;;;26.70;50.40;;;;;;6148404;28;80452;-65
2022/07/28 14:51:56;;;;;;;3.97;2.22;;;26.60;49.90;;;;;;6158663;28;80145;-67
2022/07/28 14:54:56;;;;;;;4.50;2.63;;;26.60;50.00;;;;;;6159404;28;80594;-66
2022/07/28 14:57:57;;;;;;;4.72;2.45;;;26.60;50.30;;;;;;6153650;28;81223;-67
2022/07/28 15:00:57;;;;;;;5.47;3.05;;;26.60;50.60;;;;;;6145856;28;80420;-65
2022/07/28 15:03:58;;;;;;;4.70;2.60;;;26.60;50.40;;;;;;6157869;28;81808;-63
2022/07/28 15:06:58;;;;;;;8.77;3.20;;;26.60;50.10;;;;;;6158259;28;80621;-74
2022/07/28 15:09:59;;;;;;;5.95;3.05;;;26.70;50.60;;;;;;6156370;28;80123;-66
2022/07/28 15:12:59;;;;;;;4.00;2.58;;;26.70;50.40;;;;;;6151784;28;80638;-65
2022/07/28 15:16:00;;;;;;;3.95;2.42;;;26.70;50.20;;;;;;6155265;28;80766;-66
2022/07/28 15:19:01;;;;;;;3.38;2.78;;;26.70;50.20;;;;;;6143121;28;80540;-68
2022/07/28 15:22:01;;;;;;;4.38;3.60;;;26.60;49.40;;;;;;6142954;28;80637;-66
2022/07/28 15:25:02;;;;;;;2.50;2.25;;;26.60;50.20;;;;;;6149269;28;80548;-66
2022/07/28 15:28:06;;;;;;;3.67;2.45;;;26.60;49.60;;;;;;6158699;28;80725;-68
2022/07/28 15:31:07;;;;;;;3.83;2.40;;;26.60;49.30;;;;;;6158292;28;81624;-67
2022/07/28 15:34:07;;;;;;;2.42;2.10;;;26.60;49.10;;;;;;6154130;28;81326;-67
2022/07/28 15:37:08;;;;;;;4.38;2.42;;;26.60;49.10;;;;;;6154837;28;80299;-67